Élőkép

Információk

Albatrosz Repülő Egyesület
8000 Székesfehérvár,
Radványi utca 6.

Adószám:
19092908-2-07

Bankszámla szám:
Budapest Bank
10102952-01361819-00000001

Telefon: +36 30 9598-897

Telephey: Börgönd repülőtér

Börgöndi repülõtér

LHBP METAR/TAF

[source: ADDS]
METAR
TAF LHBP 272300Z 2800/2824 32018KT CAVOK TEMPO 2800/2806 -SHRA -RA SCT040 BKN060 BECMG 2815/2817 33010KT BECMG 2822/2824 31005KT TAF
TAF LHBP 272300Z 2800/2824 32018KT CAVOK TEMPO 2800/2806 -SHRA -RA SCT040 BKN060 BECMG 2815/2817 33010KT BECMG 2822/2824 31005KT =
SR / SS: 04:34 / 17:11 UTC (Börgönd 2015-03-28)
Hungarian Chinese (Simplified) Croatian Czech English Finnish French German Hebrew Italian Japanese Polish Portuguese Romanian Russian Serbian Slovak Slovenian Spanish

Belépés tagoknak